createdAt,value
2023-04-19T00:01:01.717Z,11.20
2023-04-19T00:03:30.986Z,11.20
2023-04-19T00:06:03.640Z,11.30
2023-04-19T00:08:30.628Z,11.20
2023-04-19T00:10:57.571Z,11.00
2023-04-19T00:13:24.889Z,11.00
2023-04-19T00:15:51.721Z,11.00
2023-04-19T00:18:19.576Z,11.00
2023-04-19T00:20:49.512Z,11.00
2023-04-19T00:23:19.840Z,11.00
2023-04-19T00:25:48.548Z,11.00
2023-04-19T00:28:15.780Z,11.10
2023-04-19T00:30:43.536Z,11.00
2023-04-19T00:33:15.190Z,11.00
2023-04-19T00:35:42.513Z,11.00
2023-04-19T00:38:11.643Z,11.00
2023-04-19T00:40:39.745Z,10.90
2023-04-19T00:43:06.635Z,10.90
2023-04-19T00:45:35.802Z,10.90
2023-04-19T00:48:06.645Z,11.00
2023-04-19T00:50:36.095Z,11.00
2023-04-19T00:53:04.537Z,11.00
2023-04-19T00:55:32.157Z,10.90
2023-04-19T00:58:00.164Z,10.80
2023-04-19T01:00:29.202Z,10.80
2023-04-19T01:02:58.565Z,10.90
2023-04-19T01:05:25.683Z,10.80
2023-04-19T01:07:52.627Z,10.70
2023-04-19T01:10:19.491Z,10.80
2023-04-19T01:12:46.353Z,10.70
2023-04-19T01:15:13.350Z,10.60
2023-04-19T01:17:41.152Z,10.60
2023-04-19T01:20:08.662Z,10.70
2023-04-19T01:22:38.101Z,10.60
2023-04-19T01:25:05.695Z,10.60
2023-04-19T01:27:32.747Z,10.60
2023-04-19T01:30:02.723Z,10.40
2023-04-19T01:32:29.633Z,10.30
2023-04-19T01:34:57.676Z,10.40
2023-04-19T01:37:26.626Z,10.40
2023-04-19T01:39:56.681Z,10.40
2023-04-19T01:42:23.609Z,10.40
2023-04-19T01:44:50.583Z,10.50
2023-04-19T01:47:18.489Z,10.40
2023-04-19T01:49:45.487Z,10.30
2023-04-19T01:52:13.378Z,10.40
2023-04-19T01:54:54.409Z,10.40
2023-04-19T01:57:25.899Z,10.40
2023-04-19T01:59:56.821Z,10.40
2023-04-19T02:02:46.512Z,10.40
2023-04-19T02:05:37.694Z,10.50
2023-04-19T02:08:09.053Z,10.50
2023-04-19T02:10:36.213Z,10.60
2023-04-19T02:13:03.204Z,10.60
2023-04-19T02:15:32.023Z,10.50
2023-04-19T02:18:00.406Z,10.60
2023-04-19T02:20:29.964Z,10.70
2023-04-19T02:22:57.299Z,10.70
2023-04-19T02:25:24.591Z,10.70
2023-04-19T02:27:52.177Z,10.70
2023-04-19T02:30:22.992Z,10.80
2023-04-19T02:32:51.843Z,10.80
2023-04-19T02:35:18.835Z,10.80
2023-04-19T02:37:45.839Z,10.80
2023-04-19T02:40:16.586Z,10.80
2023-04-19T02:42:43.805Z,11.00
2023-04-19T02:45:11.041Z,11.00
2023-04-19T02:47:38.009Z,10.80
2023-04-19T02:50:06.133Z,10.90
2023-04-19T02:52:36.560Z,11.10
2023-04-19T02:55:05.192Z,11.10
2023-04-19T02:57:32.268Z,11.10
2023-04-19T02:59:59.244Z,11.10
2023-04-19T03:02:27.499Z,11.20
2023-04-19T03:04:55.867Z,11.20
2023-04-19T03:07:24.280Z,11.20
2023-04-19T03:09:51.124Z,11.20
2023-04-19T03:12:20.930Z,11.20
2023-04-19T03:14:56.982Z,11.30
2023-04-19T03:17:25.425Z,11.30
2023-04-19T03:19:53.937Z,11.30
2023-04-19T03:22:21.700Z,11.20
2023-04-19T03:24:50.112Z,11.10
2023-04-19T03:27:22.160Z,11.20
2023-04-19T03:30:01.111Z,11.20
2023-04-19T03:32:32.172Z,11.20
2023-04-19T03:34:59.522Z,11.30
2023-04-19T03:37:28.348Z,11.30
2023-04-19T03:40:22.344Z,11.30
2023-04-19T03:42:50.953Z,11.10
2023-04-19T03:45:25.583Z,11.20
2023-04-19T03:47:52.721Z,11.20
2023-04-19T03:50:20.463Z,11.10
2023-04-19T03:52:51.218Z,11.00
2023-04-19T03:55:19.633Z,11.00
2023-04-19T03:57:46.813Z,10.90
2023-04-19T04:00:22.167Z,10.90
2023-04-19T04:02:57.418Z,10.80
2023-04-19T04:05:26.997Z,10.90
2023-04-19T04:08:03.738Z,10.90
2023-04-19T04:10:33.719Z,10.80
2023-04-19T04:22:12.026Z,10.70
2023-04-19T04:24:43.309Z,10.80
2023-04-19T04:27:33.948Z,10.80
2023-04-19T04:30:02.089Z,10.70
2023-04-19T04:32:37.282Z,10.70
2023-04-19T04:35:07.924Z,10.80
2023-04-19T04:37:49.900Z,10.70
2023-04-19T04:40:19.026Z,10.70
2023-04-19T04:42:47.278Z,10.60
2023-04-19T04:45:18.133Z,10.60
2023-04-19T04:47:46.496Z,10.50
2023-04-19T04:50:20.533Z,10.70
2023-04-19T04:52:58.147Z,10.60
2023-04-19T04:55:29.348Z,10.60
2023-04-19T04:57:59.099Z,10.60
2023-04-19T05:01:05.390Z,10.60
2023-04-19T05:03:38.458Z,10.60
2023-04-19T05:06:13.385Z,10.60
2023-04-19T05:08:41.760Z,10.60
2023-04-19T05:11:19.034Z,10.70
2023-04-19T05:13:52.884Z,10.70
2023-04-19T05:16:20.441Z,10.70
2023-04-19T05:19:14.684Z,10.80
2023-04-19T05:21:51.706Z,10.60
2023-04-19T05:24:21.960Z,10.50
2023-04-19T05:26:50.742Z,10.50
2023-04-19T05:29:18.375Z,10.50
2023-04-19T05:31:54.914Z,10.60
2023-04-19T05:34:26.503Z,10.70
2023-04-19T05:36:56.183Z,10.80
2023-04-19T05:39:23.013Z,10.80
2023-04-19T05:41:51.388Z,10.80
2023-04-19T05:44:19.571Z,10.90
2023-04-19T05:46:46.676Z,10.90
2023-04-19T05:49:18.463Z,10.90
2023-04-19T05:52:00.481Z,10.90
2023-04-19T05:54:45.223Z,10.90
2023-04-19T05:57:12.371Z,11.00
2023-04-19T05:59:39.479Z,10.90
2023-04-19T06:02:07.562Z,10.90
2023-04-19T06:04:36.399Z,10.90
2023-04-19T06:07:06.109Z,11.00
2023-04-19T06:09:34.988Z,11.10
2023-04-19T06:12:03.439Z,11.10
2023-04-19T06:14:32.357Z,11.10
2023-04-19T06:17:03.754Z,11.20
2023-04-19T06:19:35.751Z,11.20
2023-04-19T06:22:04.551Z,11.20
2023-04-19T06:24:36.127Z,11.20
2023-04-19T06:27:04.201Z,11.20
2023-04-19T06:29:31.997Z,11.20
2023-04-19T06:32:02.091Z,11.30
2023-04-19T06:34:35.220Z,11.40
2023-04-19T06:37:05.564Z,11.50
2023-04-19T06:39:38.560Z,11.70
2023-04-19T06:42:08.276Z,11.80
2023-04-19T06:44:36.068Z,11.80
2023-04-19T06:47:03.983Z,11.90
2023-04-19T06:49:31.401Z,11.90
2023-04-19T06:51:59.878Z,12.10
2023-04-19T06:54:26.813Z,12.00
2023-04-19T06:56:53.719Z,12.10
2023-04-19T06:59:22.769Z,12.10
2023-04-19T07:01:53.959Z,12.20
2023-04-19T07:04:22.205Z,12.20
2023-04-19T07:06:49.960Z,12.30
2023-04-19T07:09:17.218Z,12.40
2023-04-19T07:11:44.004Z,12.50
2023-04-19T07:14:11.654Z,12.60
2023-04-19T07:16:39.480Z,12.90
2023-04-19T07:19:06.299Z,13.00
2023-04-19T07:21:35.092Z,13.30
2023-04-19T07:24:02.499Z,13.40
2023-04-19T07:26:31.404Z,13.40
2023-04-19T07:28:58.588Z,13.40
2023-04-19T07:31:29.221Z,13.50
2023-04-19T07:33:58.080Z,13.50
2023-04-19T07:36:28.557Z,13.50
2023-04-19T07:38:57.997Z,13.60
2023-04-19T07:41:24.866Z,13.60
2023-04-19T07:43:51.961Z,13.60
2023-04-19T07:46:18.960Z,13.30
2023-04-19T07:48:46.464Z,13.40
2023-04-19T07:51:16.774Z,13.50
2023-04-19T07:53:51.152Z,13.60
2023-04-19T07:56:20.174Z,13.80
2023-04-19T07:58:56.556Z,13.80
2023-04-19T08:01:32.881Z,14.00
2023-04-19T08:04:00.018Z,14.10
2023-04-19T08:06:27.112Z,14.10
2023-04-19T08:08:55.003Z,14.10
2023-04-19T08:11:22.223Z,14.00
2023-04-19T08:14:02.891Z,14.10
2023-04-19T08:19:05.794Z,14.20
2023-04-19T08:21:40.795Z,14.10
2023-04-19T08:24:10.991Z,14.20
2023-04-19T08:26:39.171Z,14.20
2023-04-19T08:29:07.525Z,14.40
2023-04-19T08:31:35.761Z,14.60
2023-04-19T08:34:07.138Z,14.70
2023-04-19T08:36:41.008Z,14.90
2023-04-19T08:39:24.698Z,14.90
2023-04-19T08:42:13.482Z,15.10
2023-04-19T08:48:01.191Z,15.10
2023-04-19T08:50:38.830Z,15.00
2023-04-19T08:53:24.879Z,15.20
2023-04-19T09:01:51.082Z,15.10
2023-04-19T09:04:35.828Z,15.10
2023-04-19T09:07:03.590Z,15.10
2023-04-19T09:12:03.081Z,15.30
2023-04-19T09:14:30.563Z,15.30
2023-04-19T09:17:17.309Z,15.30
2023-04-19T09:19:49.365Z,15.30
2023-04-19T09:22:16.615Z,15.40
2023-04-19T09:27:15.069Z,15.40
2023-04-19T09:29:42.276Z,15.40
2023-04-19T09:32:11.156Z,15.40
2023-04-19T09:35:00.444Z,15.40
2023-04-19T09:39:57.553Z,15.60
2023-04-19T09:42:45.338Z,15.70
2023-04-19T09:48:09.711Z,16.00
2023-04-19T09:50:58.308Z,16.20
2023-04-19T09:53:30.743Z,16.10
2023-04-19T09:56:02.099Z,16.20
2023-04-19T09:58:42.478Z,16.10
2023-04-19T10:01:16.585Z,16.10
2023-04-19T10:03:49.344Z,16.20
2023-04-19T10:08:53.536Z,16.10
2023-04-19T10:11:51.296Z,16.30
2023-04-19T10:14:27.903Z,16.70
2023-04-19T10:16:56.865Z,16.80
2023-04-19T10:19:25.086Z,16.90
2023-04-19T10:21:52.229Z,17.10
2023-04-19T10:24:23.237Z,17.00
2023-04-19T10:27:11.481Z,16.90
2023-04-19T10:29:55.251Z,17.10
2023-04-19T10:32:24.800Z,17.40
2023-04-19T10:34:55.071Z,17.50
2023-04-19T10:37:24.926Z,17.60
2023-04-19T10:39:52.336Z,17.60
2023-04-19T10:42:19.373Z,17.50
2023-04-19T10:45:23.822Z,17.60
2023-04-19T10:47:52.520Z,17.50
2023-04-19T10:50:24.184Z,17.50
2023-04-19T10:52:51.016Z,17.50
2023-04-19T10:55:20.862Z,17.50
2023-04-19T10:58:07.493Z,17.60
2023-04-19T11:00:36.200Z,17.50
2023-04-19T11:03:50.617Z,17.30
2023-04-19T11:06:21.468Z,17.50
2023-04-19T11:08:51.601Z,17.60
2023-04-19T11:11:19.569Z,17.60
2023-04-19T11:13:48.567Z,17.80
2023-04-19T11:16:17.707Z,18.10
2023-04-19T11:18:46.151Z,18.10
2023-04-19T11:21:17.128Z,18.10
2023-04-19T11:23:44.301Z,17.90
2023-04-19T11:26:12.724Z,18.10
2023-04-19T11:28:39.869Z,18.00
2023-04-19T11:31:07.504Z,18.00
2023-04-19T11:33:37.312Z,17.70
2023-04-19T11:36:54.892Z,17.70
2023-04-19T11:39:23.937Z,18.00
2023-04-19T11:41:52.913Z,18.20
2023-04-19T11:44:20.675Z,18.20
2023-04-19T11:47:07.616Z,18.10
2023-04-19T11:49:51.739Z,18.30
2023-04-19T11:52:24.868Z,19.00
2023-04-19T11:54:53.739Z,19.00
2023-04-19T11:57:53.263Z,18.60
2023-04-19T12:00:46.946Z,18.60
2023-04-19T12:03:15.967Z,18.30
2023-04-19T12:06:00.110Z,18.60
2023-04-19T12:08:57.105Z,19.50
2023-04-19T12:11:46.360Z,20.10
2023-04-19T12:14:16.683Z,20.40
2023-04-19T12:16:46.694Z,20.80
2023-04-19T12:19:20.739Z,21.00
2023-04-19T12:21:49.038Z,21.40
2023-04-19T12:24:19.077Z,21.60
2023-04-19T12:26:58.969Z,21.80
2023-04-19T12:29:28.596Z,22.20
2023-04-19T12:31:59.513Z,22.20
2023-04-19T12:34:32.547Z,21.90
2023-04-19T12:36:59.490Z,22.00
2023-04-19T12:39:28.693Z,21.50
2023-04-19T12:42:25.824Z,21.80
2023-04-19T12:45:29.141Z,22.10
2023-04-19T12:47:59.168Z,22.20
2023-04-19T12:50:29.315Z,21.80
2023-04-19T12:52:56.513Z,21.80
2023-04-19T12:55:25.959Z,21.90
2023-04-19T12:57:54.892Z,22.30
2023-04-19T13:00:23.085Z,22.20
2023-04-19T13:02:54.222Z,21.90
2023-04-19T13:05:21.395Z,21.70
2023-04-19T13:07:48.672Z,21.60
2023-04-19T13:10:18.209Z,21.80
2023-04-19T13:12:46.195Z,22.00
2023-04-19T13:17:59.401Z,22.20
2023-04-19T13:20:27.464Z,21.90
2023-04-19T13:22:59.624Z,21.60
2023-04-19T13:25:30.340Z,21.40
2023-04-19T13:27:58.208Z,21.60
2023-04-19T13:30:25.614Z,21.80
2023-04-19T13:32:57.874Z,21.70
2023-04-19T13:35:26.161Z,21.90
2023-04-19T13:37:54.205Z,21.90
2023-04-19T13:40:24.637Z,21.60
2023-04-19T13:42:54.314Z,21.60
2023-04-19T13:45:21.392Z,21.80
2023-04-19T13:47:48.796Z,21.60
2023-04-19T13:50:15.713Z,21.60
2023-04-19T13:52:42.712Z,21.80
2023-04-19T13:55:11.118Z,22.00
2023-04-19T14:00:25.771Z,21.80
2023-04-19T14:02:56.336Z,21.80
2023-04-19T14:05:23.437Z,21.70
2023-04-19T14:07:56.184Z,21.80
2023-04-19T14:10:26.225Z,21.80
2023-04-19T14:12:53.381Z,21.90
2023-04-19T14:15:25.571Z,22.10
2023-04-19T14:17:56.324Z,21.90
2023-04-19T14:20:24.996Z,21.40
2023-04-19T14:22:56.221Z,20.70
2023-04-19T14:25:26.788Z,20.40
2023-04-19T14:27:55.645Z,20.10
2023-04-19T14:30:25.993Z,19.80
2023-04-19T14:32:54.712Z,19.40
2023-04-19T14:35:21.940Z,19.10
2023-04-19T14:37:50.075Z,18.70
2023-04-19T14:40:20.691Z,18.60
2023-04-19T14:45:34.798Z,18.20
2023-04-19T14:48:02.705Z,18.10
2023-04-19T14:50:30.910Z,17.80
2023-04-19T14:52:57.798Z,17.70
2023-04-19T14:55:28.036Z,17.80
2023-04-19T14:57:55.101Z,17.80
2023-04-19T15:00:23.259Z,17.80
2023-04-19T15:02:54.066Z,17.90
2023-04-19T15:05:23.984Z,17.90
2023-04-19T15:07:51.050Z,17.80
2023-04-19T15:10:18.686Z,17.60
2023-04-19T15:12:48.937Z,17.60
2023-04-19T15:15:24.442Z,17.60
2023-04-19T15:18:20.051Z,17.60
2023-04-19T15:20:48.981Z,17.50
2023-04-19T15:23:36.739Z,17.30
2023-04-19T15:26:04.081Z,17.40
2023-04-19T15:28:35.322Z,17.40
2023-04-19T15:31:04.249Z,17.30
2023-04-19T15:33:31.400Z,17.10
2023-04-19T15:35:59.056Z,17.00
2023-04-19T15:38:27.975Z,16.80
2023-04-19T15:40:56.539Z,16.90
2023-04-19T15:43:25.919Z,16.80
2023-04-19T15:45:53.058Z,16.70
2023-04-19T15:48:23.856Z,16.70
2023-04-19T15:51:16.788Z,16.70
2023-04-19T15:53:43.604Z,16.70
2023-04-19T15:56:14.027Z,16.70
2023-04-19T15:58:43.056Z,16.70
2023-04-19T16:01:16.292Z,16.60
2023-04-19T16:03:45.416Z,16.70
2023-04-19T16:06:15.316Z,16.70
2023-04-19T16:08:48.043Z,16.70
2023-04-19T16:11:20.079Z,16.60
2023-04-19T16:13:53.890Z,16.60
2023-04-19T16:16:22.908Z,16.60
2023-04-19T16:18:53.546Z,16.50
2023-04-19T16:21:20.546Z,16.60
2023-04-19T16:23:52.816Z,16.50
2023-04-19T16:26:19.886Z,16.50
2023-04-19T16:28:47.337Z,16.50
2023-04-19T16:31:15.692Z,16.40
2023-04-19T16:33:42.655Z,16.30
2023-04-19T16:36:14.420Z,16.30
2023-04-19T16:38:42.359Z,16.30
2023-04-19T16:41:12.889Z,16.30
2023-04-19T16:43:39.814Z,16.20
2023-04-19T16:46:07.580Z,16.20
2023-04-19T16:48:34.668Z,16.30
2023-04-19T16:51:02.708Z,16.20
2023-04-19T16:53:31.490Z,16.20
2023-04-19T16:56:00.251Z,16.20
2023-04-19T17:01:10.167Z,16.10
2023-04-19T17:03:41.077Z,16.00
2023-04-19T17:06:09.435Z,16.00
2023-04-19T17:08:40.420Z,16.00
2023-04-19T17:11:10.068Z,16.00
2023-04-19T17:13:41.181Z,15.90
2023-04-19T17:16:15.925Z,15.80
2023-04-19T17:21:25.983Z,15.70
2023-04-19T17:23:53.912Z,15.70
2023-04-19T17:26:28.091Z,15.70
2023-04-19T17:29:03.321Z,15.70
2023-04-19T17:31:37.973Z,15.60
2023-04-19T17:34:12.085Z,15.60
2023-04-19T17:37:44.687Z,15.60
2023-04-19T17:40:12.923Z,15.50
2023-04-19T17:42:45.076Z,15.40
2023-04-19T17:45:14.448Z,15.30
2023-04-19T17:47:44.387Z,15.20
2023-04-19T17:50:13.790Z,15.30
2023-04-19T17:52:40.842Z,15.20
2023-04-19T17:55:09.133Z,15.10
2023-04-19T17:57:40.154Z,15.20
2023-04-19T18:00:10.694Z,15.20
2023-04-19T18:02:37.947Z,15.30
2023-04-19T18:05:09.053Z,15.10
2023-04-19T18:07:40.024Z,15.00
2023-04-19T18:10:12.856Z,15.10
2023-04-19T18:12:45.632Z,14.90
2023-04-19T18:15:14.794Z,14.90
2023-04-19T18:17:41.888Z,14.90
2023-04-19T18:20:16.092Z,14.80
2023-04-19T18:22:47.695Z,14.80
2023-04-19T18:25:14.895Z,14.90
2023-04-19T18:27:43.024Z,14.80
2023-04-19T18:30:11.804Z,14.90
2023-04-19T18:32:39.356Z,14.80
2023-04-19T18:35:10.343Z,14.80
2023-04-19T18:37:39.152Z,14.60
2023-04-19T18:40:10.198Z,14.60
2023-04-19T18:42:37.518Z,14.60
2023-04-19T18:45:04.936Z,14.50
2023-04-19T18:47:33.911Z,14.50
2023-04-19T18:50:05.185Z,14.50
2023-04-19T18:52:36.782Z,14.40
2023-04-19T18:55:06.325Z,14.30
2023-04-19T18:57:35.472Z,14.30
2023-04-19T19:00:05.663Z,14.30
2023-04-19T19:02:34.959Z,14.40
2023-04-19T19:05:02.669Z,14.30
2023-04-19T19:07:36.826Z,14.30
2023-04-19T19:10:18.199Z,14.20
2023-04-19T19:12:48.214Z,14.10
2023-04-19T19:15:17.926Z,14.10
2023-04-19T19:17:49.263Z,14.00
2023-04-19T19:20:21.140Z,14.00
2023-04-19T19:22:48.862Z,13.90
2023-04-19T19:25:16.762Z,13.90
2023-04-19T19:28:04.912Z,13.80
2023-04-19T19:30:34.599Z,13.80
2023-04-19T19:33:04.587Z,13.80
2023-04-19T19:35:31.878Z,13.80
2023-04-19T19:38:00.078Z,13.70
2023-04-19T19:40:31.170Z,13.60
2023-04-19T19:43:00.145Z,13.50
2023-04-19T19:45:29.110Z,13.60
2023-04-19T19:48:01.139Z,13.60
2023-04-19T19:51:01.006Z,13.60
2023-04-19T19:53:22.136Z,13.60
2023-04-19T19:55:49.198Z,13.60
2023-04-19T19:58:42.968Z,13.50
2023-04-19T20:01:06.301Z,13.40
2023-04-19T20:03:37.787Z,13.40
2023-04-19T20:07:03.027Z,13.30
2023-04-19T20:09:03.590Z,13.30
2023-04-19T20:11:31.987Z,13.30
2023-04-19T20:13:58.972Z,13.30
2023-04-19T20:16:26.439Z,13.30
2023-04-19T20:18:54.822Z,13.40
2023-04-19T20:21:23.513Z,13.30
2023-04-19T20:23:52.917Z,13.30
2023-04-19T20:26:19.987Z,13.20
2023-04-19T20:28:50.356Z,13.20
2023-04-19T20:31:22.649Z,13.10
2023-04-19T20:33:53.492Z,13.10
2023-04-19T20:36:24.866Z,13.00
2023-04-19T20:38:53.006Z,12.90
2023-04-19T20:41:22.995Z,12.90
2023-04-19T20:43:50.125Z,12.90
2023-04-19T20:46:17.100Z,12.80
2023-04-19T20:48:44.136Z,12.90
2023-04-19T20:51:12.680Z,13.00
2023-04-19T20:53:39.663Z,12.90
2023-04-19T20:56:06.614Z,12.90
2023-04-19T20:58:35.063Z,12.90
2023-04-19T21:01:02.013Z,12.80
2023-04-19T21:03:29.068Z,12.70
2023-04-19T21:05:56.124Z,12.60
2023-04-19T21:08:24.206Z,12.60
2023-04-19T21:10:54.297Z,12.50
2023-04-19T21:13:21.231Z,12.50
2023-04-19T21:15:48.069Z,12.60
2023-04-19T21:18:15.029Z,12.60
2023-04-19T21:20:43.173Z,12.60
2023-04-19T21:23:10.116Z,12.50
2023-04-19T21:25:37.349Z,12.40
2023-04-19T21:28:04.388Z,12.40
2023-04-19T21:30:31.605Z,12.40
2023-04-19T21:32:58.729Z,12.30
2023-04-19T21:35:26.104Z,12.20
2023-04-19T21:37:53.493Z,12.20
2023-04-19T21:40:20.484Z,12.10
2023-04-19T21:42:47.344Z,12.10
2023-04-19T21:45:14.274Z,12.10
2023-04-19T21:47:41.342Z,12.10
2023-04-19T21:50:08.977Z,12.00
2023-04-19T21:52:38.428Z,12.00
2023-04-19T21:55:07.040Z,12.10
2023-04-19T21:57:37.603Z,12.10
2023-04-19T22:00:09.263Z,12.00
2023-04-19T22:02:42.122Z,11.90
2023-04-19T22:05:09.345Z,11.90
2023-04-19T22:07:40.179Z,11.80
2023-04-19T22:10:08.862Z,11.80
2023-04-19T22:12:48.298Z,11.80
2023-04-19T22:16:15.288Z,11.70
2023-04-19T22:18:43.495Z,11.70
2023-04-19T22:21:12.927Z,11.70
2023-04-19T22:23:39.832Z,11.70
2023-04-19T22:26:06.708Z,11.80
2023-04-19T22:28:39.140Z,11.70
2023-04-19T22:31:07.198Z,11.60
2023-04-19T22:33:35.195Z,11.50
2023-04-19T22:36:04.043Z,11.50
2023-04-19T22:38:32.128Z,11.50
2023-04-19T22:41:00.068Z,11.50
2023-04-19T22:43:28.162Z,11.50
2023-04-19T22:45:55.089Z,11.40
2023-04-19T22:48:21.998Z,11.40
2023-04-19T22:50:50.313Z,11.40
2023-04-19T22:53:17.223Z,11.30
2023-04-19T22:55:46.436Z,11.30
2023-04-19T22:58:14.756Z,11.20
2023-04-19T23:00:41.624Z,11.10
2023-04-19T23:03:10.578Z,11.10
2023-04-19T23:05:39.352Z,11.20
2023-04-19T23:08:07.163Z,11.10
2023-04-19T23:10:38.107Z,11.10
2023-04-19T23:13:05.930Z,11.00
2023-04-19T23:15:37.712Z,10.90
2023-04-19T23:18:04.952Z,10.90
2023-04-19T23:20:32.116Z,10.80
2023-04-19T23:22:59.614Z,10.90
2023-04-19T23:25:32.702Z,10.80
2023-04-19T23:28:30.098Z,10.80
2023-04-19T23:30:57.126Z,10.80
2023-04-19T23:33:24.094Z,10.70
2023-04-19T23:35:52.175Z,10.60
2023-04-19T23:38:19.251Z,10.60
2023-04-19T23:40:46.457Z,10.70
2023-04-19T23:43:14.475Z,10.60
2023-04-19T23:45:42.458Z,10.50
2023-04-19T23:48:10.406Z,10.60
2023-04-19T23:50:37.454Z,10.50
2023-04-19T23:53:05.486Z,10.40
2023-04-19T23:55:32.564Z,10.50
2023-04-19T23:57:59.585Z,10.40
